createdAt,value
2019-03-13T00:00:55.080Z,6.09
2019-03-13T00:01:55.054Z,6.15
2019-03-13T00:02:55.034Z,6.07
2019-03-13T00:03:55.005Z,6.15
2019-03-13T00:04:54.980Z,6.13
2019-03-13T00:05:55.024Z,6.09
2019-03-13T00:06:54.939Z,6.02
2019-03-13T00:07:54.907Z,6.09
2019-03-13T00:08:54.882Z,6.17
2019-03-13T00:09:54.855Z,6.12
2019-03-13T00:10:54.839Z,6.02
2019-03-13T00:11:54.820Z,6.06
2019-03-13T00:12:54.781Z,6.02
2019-03-13T00:13:54.756Z,6.06
2019-03-13T00:14:54.732Z,6.09
2019-03-13T00:15:54.709Z,6.05
2019-03-13T00:16:54.678Z,6.12
2019-03-13T00:17:54.705Z,6.05
2019-03-13T00:18:54.646Z,6.05
2019-03-13T00:19:54.654Z,5.95
2019-03-13T00:20:54.589Z,6.02
2019-03-13T00:21:54.553Z,6.05
2019-03-13T00:22:54.527Z,6.12
2019-03-13T00:23:54.502Z,6.12
2019-03-13T00:24:56.279Z,6.17
2019-03-13T00:25:54.458Z,6.06
2019-03-13T00:26:54.427Z,6.17
2019-03-13T00:27:54.406Z,6.17
2019-03-13T00:28:54.383Z,6.26
2019-03-13T00:29:54.350Z,6.28
2019-03-13T00:30:54.325Z,6.32
2019-03-13T00:31:54.318Z,6.29
2019-03-13T00:32:54.281Z,6.22
2019-03-13T00:33:54.250Z,6.29
2019-03-13T00:34:54.226Z,6.29
2019-03-13T00:35:54.213Z,6.31
2019-03-13T00:36:54.174Z,6.29
2019-03-13T00:37:54.158Z,6.35
2019-03-13T00:38:54.127Z,6.38
2019-03-13T00:39:54.198Z,6.36
2019-03-13T00:40:54.076Z,6.34
2019-03-13T00:41:54.158Z,6.26
2019-03-13T00:42:54.024Z,6.26
2019-03-13T00:43:54.008Z,6.32
2019-03-13T00:44:53.992Z,6.41
2019-03-13T00:45:53.950Z,6.29
2019-03-13T00:46:53.930Z,6.35
2019-03-13T00:47:53.901Z,6.29
2019-03-13T00:48:53.877Z,6.34
2019-03-13T00:49:53.859Z,6.34
2019-03-13T00:50:53.840Z,6.26
2019-03-13T00:51:53.819Z,6.22
2019-03-13T00:52:53.774Z,6.34
2019-03-13T00:53:53.755Z,6.36
2019-03-13T00:54:53.723Z,6.34
2019-03-13T00:55:53.706Z,6.29
2019-03-13T00:56:53.675Z,6.34
2019-03-13T00:57:53.647Z,6.39
2019-03-13T00:58:53.635Z,6.41
2019-03-13T00:59:53.599Z,6.39
2019-03-13T01:00:53.598Z,6.49
2019-03-13T01:01:53.556Z,6.44
2019-03-13T01:02:53.526Z,6.44
2019-03-13T01:03:53.498Z,6.52
2019-03-13T01:04:53.473Z,6.52
2019-03-13T01:05:53.465Z,6.52
2019-03-13T01:06:53.438Z,6.54
2019-03-13T01:07:53.401Z,6.54
2019-03-13T01:08:53.375Z,6.53
2019-03-13T01:09:53.349Z,6.53
2019-03-13T01:10:53.324Z,6.53
2019-03-13T01:11:53.300Z,6.50
2019-03-13T01:12:53.274Z,6.46
2019-03-13T01:13:53.259Z,6.47
2019-03-13T01:14:53.224Z,6.47
2019-03-13T01:15:53.200Z,6.46
2019-03-13T01:16:53.174Z,6.49
2019-03-13T01:17:53.200Z,6.53
2019-03-13T01:18:53.124Z,6.39
2019-03-13T01:19:53.100Z,6.47
2019-03-13T01:20:53.075Z,6.47
2019-03-13T01:21:53.050Z,6.56
2019-03-13T01:22:53.025Z,6.52
2019-03-13T01:23:53.000Z,6.50
2019-03-13T01:24:52.982Z,6.46
2019-03-13T01:25:52.952Z,6.41
2019-03-13T01:26:52.934Z,6.41
2019-03-13T01:27:52.900Z,6.44
2019-03-13T01:28:52.883Z,6.49
2019-03-13T01:29:52.859Z,6.47
2019-03-13T01:30:52.826Z,6.35
2019-03-13T01:31:52.805Z,6.43
2019-03-13T01:32:52.790Z,6.44
2019-03-13T01:33:52.751Z,6.47
2019-03-13T01:34:52.726Z,6.47
2019-03-13T01:35:52.701Z,6.46
2019-03-13T01:36:52.676Z,6.44
2019-03-13T01:37:52.650Z,6.44
2019-03-13T01:38:52.663Z,6.39
2019-03-13T01:39:52.601Z,6.47
2019-03-13T01:40:52.575Z,6.44
2019-03-13T01:41:52.551Z,6.31
2019-03-13T01:42:52.576Z,6.36
2019-03-13T01:43:52.500Z,6.31
2019-03-13T01:44:52.474Z,6.34
2019-03-13T01:45:52.451Z,6.26
2019-03-13T01:46:52.468Z,6.34
2019-03-13T01:47:52.400Z,6.34
2019-03-13T01:48:52.384Z,6.32
2019-03-13T01:49:52.358Z,6.28
2019-03-13T01:50:52.325Z,6.34
2019-03-13T01:51:52.308Z,6.32
2019-03-13T01:52:52.290Z,6.28
2019-03-13T01:53:52.266Z,6.25
2019-03-13T01:54:52.224Z,6.26
2019-03-13T01:55:52.199Z,6.34
2019-03-13T01:56:52.172Z,6.31
2019-03-13T01:57:52.147Z,6.29
2019-03-13T01:58:52.122Z,6.32
2019-03-13T01:59:52.098Z,6.31
2019-03-13T02:00:52.071Z,6.34
2019-03-13T02:01:52.049Z,6.28
2019-03-13T02:02:52.023Z,6.38
2019-03-13T02:03:51.998Z,6.36
2019-03-13T02:04:51.973Z,6.32
2019-03-13T02:05:51.947Z,6.39
2019-03-13T02:06:51.924Z,6.39
2019-03-13T02:07:51.895Z,6.44
2019-03-13T02:08:51.873Z,6.44
2019-03-13T02:09:51.853Z,6.47
2019-03-13T02:10:51.824Z,6.46
2019-03-13T02:11:51.796Z,6.28
2019-03-13T02:12:51.773Z,6.43
2019-03-13T02:13:51.745Z,6.43
2019-03-13T02:14:51.719Z,6.44
2019-03-13T02:15:51.695Z,6.41
2019-03-13T02:16:51.676Z,6.39
2019-03-13T02:17:51.649Z,6.47
2019-03-13T02:18:51.619Z,6.41
2019-03-13T02:19:51.668Z,6.41
2019-03-13T02:20:51.568Z,6.36
2019-03-13T02:21:51.543Z,6.38
2019-03-13T02:22:51.517Z,6.41
2019-03-13T02:23:51.495Z,6.34
2019-03-13T02:24:54.042Z,6.39
2019-03-13T02:25:51.444Z,6.28
2019-03-13T02:26:51.418Z,6.38
2019-03-13T02:27:51.392Z,6.46
2019-03-13T02:28:51.369Z,6.38
2019-03-13T02:29:51.347Z,6.34
2019-03-13T02:30:51.329Z,6.36
2019-03-13T02:31:51.291Z,6.32
2019-03-13T02:32:51.283Z,6.47
2019-03-13T02:33:51.244Z,6.54
2019-03-13T02:34:51.230Z,6.41
2019-03-13T02:35:51.198Z,6.46
2019-03-13T02:36:51.165Z,6.36
2019-03-13T02:37:51.141Z,6.52
2019-03-13T02:38:51.112Z,6.47
2019-03-13T02:39:51.093Z,6.50
2019-03-13T02:40:51.063Z,6.56
2019-03-13T02:41:51.040Z,6.60
2019-03-13T02:42:51.013Z,6.54
2019-03-13T02:43:50.986Z,6.57
2019-03-13T02:44:50.962Z,6.56
2019-03-13T02:45:50.936Z,6.54
2019-03-13T02:46:50.912Z,6.62
2019-03-13T02:47:50.886Z,6.54
2019-03-13T02:48:50.860Z,6.57
2019-03-13T02:49:50.836Z,6.68
2019-03-13T02:50:50.809Z,6.59
2019-03-13T02:51:50.834Z,6.67
2019-03-13T02:52:50.776Z,6.68
2019-03-13T02:53:50.736Z,6.68
2019-03-13T02:54:50.711Z,6.67
2019-03-13T02:55:50.686Z,6.68
2019-03-13T02:56:50.658Z,6.71
2019-03-13T02:57:50.639Z,6.67
2019-03-13T02:58:50.609Z,6.64
2019-03-13T02:59:50.646Z,6.72
2019-03-13T03:00:50.569Z,6.62
2019-03-13T03:01:50.535Z,6.65
2019-03-13T03:02:50.527Z,6.74
2019-03-13T03:03:50.595Z,6.75
2019-03-13T03:04:50.460Z,6.64
2019-03-13T03:05:50.435Z,6.77
2019-03-13T03:06:50.408Z,6.64
2019-03-13T03:07:50.389Z,6.62
2019-03-13T03:08:50.370Z,6.65
2019-03-13T03:09:50.347Z,6.75
2019-03-13T03:10:50.307Z,6.62
2019-03-13T03:11:50.285Z,6.77
2019-03-13T03:12:50.260Z,6.75
2019-03-13T03:13:50.236Z,6.68
2019-03-13T03:14:50.236Z,6.68
2019-03-13T03:15:50.184Z,6.62
2019-03-13T03:16:50.216Z,6.65
2019-03-13T03:17:50.130Z,6.75
2019-03-13T03:18:50.107Z,6.78
2019-03-13T03:19:50.083Z,6.78
2019-03-13T03:20:50.058Z,6.75
2019-03-13T03:21:50.039Z,6.83
2019-03-13T03:22:50.012Z,6.75
2019-03-13T03:23:49.980Z,6.85
2019-03-13T03:24:49.958Z,6.80
2019-03-13T03:25:49.930Z,6.90
2019-03-13T03:26:49.905Z,6.80
2019-03-13T03:27:49.881Z,6.77
2019-03-13T03:28:49.854Z,6.75
2019-03-13T03:29:49.833Z,6.77
2019-03-13T03:30:49.863Z,6.80
2019-03-13T03:31:49.781Z,6.75
2019-03-13T03:32:49.768Z,6.72
2019-03-13T03:33:49.730Z,6.74
2019-03-13T03:34:49.704Z,6.77
2019-03-13T03:35:49.682Z,6.82
2019-03-13T03:36:49.655Z,6.80
2019-03-13T03:37:49.636Z,6.78
2019-03-13T03:38:49.604Z,6.90
2019-03-13T03:39:49.579Z,6.87
2019-03-13T03:40:49.551Z,6.95
2019-03-13T03:41:49.530Z,6.95
2019-03-13T03:42:49.524Z,6.92
2019-03-13T03:43:49.479Z,6.93
2019-03-13T03:44:49.452Z,6.95
2019-03-13T03:45:49.424Z,6.95
2019-03-13T03:46:49.400Z,6.95
2019-03-13T03:47:49.380Z,6.97
2019-03-13T03:48:49.348Z,7.00
2019-03-13T03:49:49.327Z,7.03
2019-03-13T03:50:49.300Z,7.03
2019-03-13T03:51:49.284Z,7.04
2019-03-13T03:52:49.249Z,7.04
2019-03-13T03:53:49.227Z,7.07
2019-03-13T03:54:49.198Z,7.13
2019-03-13T03:55:49.175Z,7.13
2019-03-13T03:56:49.159Z,7.15
2019-03-13T03:57:49.124Z,7.13
2019-03-13T03:58:49.102Z,7.11
2019-03-13T03:59:49.076Z,7.13
2019-03-13T04:00:49.064Z,7.10
2019-03-13T04:01:49.040Z,7.18
2019-03-13T04:02:49.004Z,7.10
2019-03-13T04:03:48.979Z,7.13
2019-03-13T04:04:48.960Z,7.10
2019-03-13T04:05:48.927Z,7.08
2019-03-13T04:06:48.899Z,7.11
2019-03-13T04:07:48.894Z,7.18
2019-03-13T04:08:48.850Z,7.11
2019-03-13T04:09:48.827Z,7.10
2019-03-13T04:10:48.798Z,7.11
2019-03-13T04:11:48.774Z,7.15
2019-03-13T04:12:48.849Z,7.13
2019-03-13T04:13:48.727Z,7.19
2019-03-13T04:14:48.702Z,7.19
2019-03-13T04:15:48.680Z,7.23
2019-03-13T04:16:48.658Z,7.19
2019-03-13T04:17:48.623Z,7.15
2019-03-13T04:18:48.597Z,7.19
2019-03-13T04:19:48.573Z,7.19
2019-03-13T04:20:48.546Z,7.25
2019-03-13T04:21:48.525Z,7.14
2019-03-13T04:22:48.498Z,7.22
2019-03-13T04:23:48.472Z,7.19
2019-03-13T04:24:48.446Z,7.13
2019-03-13T04:25:48.424Z,7.15
2019-03-13T04:26:48.407Z,7.15
2019-03-13T04:27:48.373Z,7.14
2019-03-13T04:28:48.349Z,7.18
2019-03-13T04:29:48.342Z,7.21
2019-03-13T04:30:48.303Z,7.14
2019-03-13T04:31:48.275Z,7.15
2019-03-13T04:32:48.247Z,7.21
2019-03-13T04:33:48.223Z,7.21
2019-03-13T04:34:48.197Z,7.28
2019-03-13T04:35:48.179Z,7.19
2019-03-13T04:36:48.154Z,7.19
2019-03-13T04:37:48.134Z,7.18
2019-03-13T04:38:48.113Z,7.13
2019-03-13T04:39:48.072Z,7.11
2019-03-13T04:40:48.047Z,7.19
2019-03-13T04:41:48.027Z,7.19
2019-03-13T04:42:48.001Z,7.15
2019-03-13T04:43:47.972Z,7.18
2019-03-13T04:44:47.950Z,7.19
2019-03-13T04:45:47.933Z,7.19
2019-03-13T04:46:47.908Z,7.19
2019-03-13T04:47:47.882Z,7.14
2019-03-13T04:48:47.847Z,7.15
2019-03-13T04:49:47.823Z,7.14
2019-03-13T04:50:47.807Z,7.21
2019-03-13T04:51:47.774Z,7.25
2019-03-13T04:52:47.757Z,7.14
2019-03-13T04:53:47.723Z,7.23
2019-03-13T04:54:47.699Z,7.15
2019-03-13T04:55:47.674Z,7.21
2019-03-13T04:56:47.656Z,7.21
2019-03-13T04:57:47.625Z,7.18
2019-03-13T04:58:47.599Z,7.21
2019-03-13T04:59:47.575Z,7.22
2019-03-13T05:00:47.549Z,7.23
2019-03-13T05:01:47.527Z,7.28
2019-03-13T05:02:47.498Z,7.26
2019-03-13T05:03:47.474Z,7.22
2019-03-13T05:04:47.450Z,7.25
2019-03-13T05:05:47.423Z,7.28
2019-03-13T05:06:47.406Z,7.31
2019-03-13T05:07:47.373Z,7.28
2019-03-13T05:08:47.356Z,7.25
2019-03-13T05:09:47.324Z,7.19
2019-03-13T05:10:47.299Z,7.19
2019-03-13T05:11:47.274Z,7.22
2019-03-13T05:12:47.253Z,7.31
2019-03-13T05:13:47.233Z,7.25
2019-03-13T05:14:47.200Z,7.26
2019-03-13T05:15:47.174Z,7.31
2019-03-13T05:16:47.149Z,7.28
2019-03-13T05:17:47.126Z,7.28
2019-03-13T05:18:47.099Z,7.36
2019-03-13T05:19:47.078Z,7.29
2019-03-13T05:20:47.051Z,7.29
2019-03-13T05:21:47.024Z,7.28
2019-03-13T05:22:47.001Z,7.32
2019-03-13T05:23:46.975Z,7.28
2019-03-13T05:24:46.950Z,7.28
2019-03-13T05:25:46.925Z,7.26
2019-03-13T05:26:46.900Z,7.32
2019-03-13T05:27:46.875Z,7.28
2019-03-13T05:28:46.853Z,7.29
2019-03-13T05:29:46.826Z,7.31
2019-03-13T05:30:46.802Z,7.31
2019-03-13T05:31:46.778Z,7.32
2019-03-13T05:32:46.757Z,7.44
2019-03-13T05:33:46.730Z,7.37
2019-03-13T05:34:46.701Z,7.41
2019-03-13T05:35:46.678Z,7.36
2019-03-13T05:36:46.653Z,7.40
2019-03-13T05:37:46.633Z,7.39
2019-03-13T05:38:46.614Z,7.47
2019-03-13T05:39:46.579Z,7.37
2019-03-13T05:40:46.568Z,7.44
2019-03-13T05:41:46.528Z,7.43
2019-03-13T05:42:46.502Z,7.46
2019-03-13T05:43:46.477Z,7.43
2019-03-13T05:44:46.452Z,7.47
2019-03-13T05:45:46.430Z,7.43
2019-03-13T05:46:46.411Z,7.48
2019-03-13T05:47:46.378Z,7.48
2019-03-13T05:48:46.354Z,7.40
2019-03-13T05:49:46.337Z,7.48
2019-03-13T05:50:46.305Z,7.48
2019-03-13T05:51:46.280Z,7.47
2019-03-13T05:52:46.253Z,7.43
2019-03-13T05:53:46.231Z,7.44
2019-03-13T05:54:46.211Z,7.55
2019-03-13T05:55:46.180Z,7.51
2019-03-13T05:56:46.156Z,7.56
2019-03-13T05:57:46.132Z,7.66
2019-03-13T05:58:46.106Z,7.61
2019-03-13T05:59:46.080Z,7.59
2019-03-13T06:00:46.054Z,7.64
2019-03-13T06:01:46.030Z,7.62
2019-03-13T06:02:47.912Z,7.61
2019-03-13T06:03:45.981Z,7.55
2019-03-13T06:04:45.955Z,7.59
2019-03-13T06:05:45.931Z,7.61
2019-03-13T06:06:45.906Z,7.66
2019-03-13T06:07:45.882Z,7.70
2019-03-13T06:08:45.866Z,7.66
2019-03-13T06:09:45.834Z,7.74
2019-03-13T06:10:45.808Z,7.67
2019-03-13T06:11:45.790Z,7.59
2019-03-13T06:12:45.764Z,7.64
2019-03-13T06:13:47.340Z,7.69
2019-03-13T06:14:45.711Z,7.66
2019-03-13T06:15:45.691Z,7.64
2019-03-13T06:16:45.661Z,7.59
2019-03-13T06:17:45.635Z,7.64
2019-03-13T06:18:45.609Z,7.58
2019-03-13T06:19:45.595Z,7.61
2019-03-13T06:20:45.662Z,7.61
2019-03-13T06:21:45.535Z,7.66
2019-03-13T06:22:45.514Z,7.58
2019-03-13T06:23:47.841Z,7.64
2019-03-13T06:24:45.462Z,7.67
2019-03-13T06:25:45.454Z,7.64
2019-03-13T06:26:45.413Z,7.58
2019-03-13T06:27:46.673Z,7.58
2019-03-13T06:28:45.366Z,7.59
2019-03-13T06:29:45.343Z,7.67
2019-03-13T06:30:45.314Z,7.67
2019-03-13T06:31:45.289Z,7.62
2019-03-13T06:32:45.264Z,7.61
2019-03-13T06:33:45.240Z,7.58
2019-03-13T06:34:45.214Z,7.66
2019-03-13T06:35:45.191Z,7.62
2019-03-13T06:36:45.165Z,7.61
2019-03-13T06:37:45.141Z,7.64
2019-03-13T06:38:45.117Z,7.66
2019-03-13T06:39:45.093Z,7.66
2019-03-13T06:40:45.066Z,7.70
2019-03-13T06:41:45.042Z,7.67
2019-03-13T06:42:45.017Z,7.70
2019-03-13T06:43:44.993Z,7.72
2019-03-13T06:44:44.967Z,7.69
2019-03-13T06:45:44.944Z,7.70
2019-03-13T06:46:44.920Z,7.61
2019-03-13T06:47:44.898Z,7.66
2019-03-13T06:48:44.884Z,7.70
2019-03-13T06:49:44.858Z,7.72
2019-03-13T06:50:44.826Z,7.72
2019-03-13T06:51:44.797Z,7.74
2019-03-13T06:52:44.774Z,7.74
2019-03-13T06:53:44.749Z,7.77
2019-03-13T06:54:44.724Z,7.66
2019-03-13T06:55:44.698Z,7.62
2019-03-13T06:56:44.673Z,7.69
2019-03-13T06:57:44.653Z,7.50
2019-03-13T06:58:44.625Z,7.53
2019-03-13T06:59:44.599Z,7.59
2019-03-13T07:00:44.577Z,7.48
2019-03-13T07:01:44.552Z,7.44
2019-03-13T07:02:44.526Z,7.43
2019-03-13T07:03:44.503Z,7.48
2019-03-13T07:04:44.477Z,7.41
2019-03-13T07:05:44.455Z,7.53
2019-03-13T07:06:44.431Z,7.53
2019-03-13T07:07:44.415Z,7.64
2019-03-13T07:08:44.381Z,7.59
2019-03-13T07:09:44.359Z,7.62
2019-03-13T07:10:44.332Z,7.72
2019-03-13T07:11:44.309Z,7.62
2019-03-13T07:12:44.285Z,7.61
2019-03-13T07:13:44.262Z,7.59
2019-03-13T07:14:44.240Z,7.61
2019-03-13T07:15:44.210Z,7.59
2019-03-13T07:16:44.188Z,7.69
2019-03-13T07:17:44.159Z,7.62
2019-03-13T07:18:44.137Z,7.59
2019-03-13T07:19:44.112Z,7.61
2019-03-13T07:20:44.085Z,7.67
2019-03-13T07:21:44.061Z,7.62
2019-03-13T07:22:44.045Z,7.48
2019-03-13T07:23:44.012Z,7.44
2019-03-13T07:24:43.988Z,7.43
2019-03-13T07:25:43.974Z,7.48
2019-03-13T07:26:43.945Z,7.44
2019-03-13T07:27:43.916Z,7.36
2019-03-13T07:28:43.892Z,7.41
2019-03-13T07:29:43.876Z,7.37
2019-03-13T07:30:43.847Z,7.32
2019-03-13T07:31:43.817Z,7.41
2019-03-13T07:32:43.794Z,7.36
2019-03-13T07:33:43.777Z,7.48
2019-03-13T07:34:43.915Z,7.40
2019-03-13T07:35:43.718Z,7.53
2019-03-13T07:36:43.694Z,7.48
2019-03-13T07:37:43.678Z,7.44
2019-03-13T07:38:43.647Z,7.47
2019-03-13T07:39:43.630Z,7.51
2019-03-13T07:40:43.603Z,7.48
2019-03-13T07:41:43.574Z,7.43
2019-03-13T07:42:43.548Z,7.62
2019-03-13T07:43:43.529Z,7.50
2019-03-13T07:44:43.504Z,7.62
2019-03-13T07:45:43.496Z,7.67
2019-03-13T07:46:43.450Z,7.56
2019-03-13T07:47:43.446Z,7.67
2019-03-13T07:48:43.407Z,7.59
2019-03-13T07:49:43.379Z,7.67
2019-03-13T07:50:43.352Z,7.70
2019-03-13T07:51:43.327Z,7.64
2019-03-13T07:52:43.306Z,7.69
2019-03-13T07:53:43.289Z,7.72
2019-03-13T07:54:43.255Z,7.72
2019-03-13T07:55:43.238Z,7.74
2019-03-13T07:56:43.208Z,7.75
2019-03-13T07:57:43.187Z,7.78
2019-03-13T07:58:44.204Z,7.74
2019-03-13T07:59:43.139Z,7.70
2019-03-13T08:00:43.160Z,7.75
2019-03-13T08:01:43.093Z,7.64
2019-03-13T08:02:43.060Z,7.78
2019-03-13T08:03:43.041Z,7.77
2019-03-13T08:04:43.012Z,7.85
2019-03-13T08:05:42.990Z,7.87
2019-03-13T08:06:42.966Z,7.90
2019-03-13T08:07:42.970Z,7.83
2019-03-13T08:08:42.919Z,7.90
2019-03-13T08:09:42.893Z,7.90
2019-03-13T08:10:42.886Z,7.91
2019-03-13T08:11:44.262Z,7.85
2019-03-13T08:12:42.825Z,7.90
2019-03-13T08:13:42.798Z,7.87
2019-03-13T08:14:42.823Z,7.83
2019-03-13T08:15:42.757Z,7.93
2019-03-13T08:16:42.752Z,7.93
2019-03-13T08:17:42.702Z,7.87
2019-03-13T08:18:42.680Z,7.99
2019-03-13T08:19:42.655Z,7.98
2019-03-13T08:20:42.630Z,8.02
2019-03-13T08:21:42.612Z,8.16
2019-03-13T08:22:42.586Z,8.20
2019-03-13T08:23:42.560Z,8.27
2019-03-13T08:24:42.541Z,8.31
2019-03-13T08:25:42.520Z,8.39
2019-03-13T08:26:42.495Z,8.38
2019-03-13T08:27:42.469Z,8.27
2019-03-13T08:28:42.441Z,8.28
2019-03-13T08:29:42.418Z,8.35
2019-03-13T08:30:42.396Z,8.31
2019-03-13T08:31:42.371Z,8.24
2019-03-13T08:32:42.347Z,8.18
2019-03-13T08:33:42.326Z,8.26
2019-03-13T08:34:42.299Z,8.32
2019-03-13T08:35:42.278Z,8.32
2019-03-13T08:36:42.260Z,8.35
2019-03-13T08:37:42.248Z,8.35
2019-03-13T08:38:42.208Z,8.28
2019-03-13T08:39:42.187Z,8.31
2019-03-13T08:40:42.166Z,8.18
2019-03-13T08:41:42.138Z,8.23
2019-03-13T08:42:42.116Z,8.18
2019-03-13T08:43:42.098Z,8.18
2019-03-13T08:44:42.069Z,8.17
2019-03-13T08:45:42.054Z,8.18
2019-03-13T08:46:42.021Z,8.17
2019-03-13T08:47:42.442Z,8.17
2019-03-13T08:48:41.978Z,8.13
2019-03-13T08:49:41.949Z,8.09
2019-03-13T08:50:41.927Z,8.21
2019-03-13T08:51:41.909Z,8.20
2019-03-13T08:52:41.881Z,8.23
2019-03-13T08:53:41.876Z,8.27
2019-03-13T08:54:41.836Z,8.23
2019-03-13T08:55:41.812Z,8.31
2019-03-13T08:56:41.788Z,8.27
2019-03-13T08:57:41.769Z,8.14
2019-03-13T08:58:41.747Z,8.08
2019-03-13T08:59:41.727Z,8.26
2019-03-13T09:00:41.692Z,8.16
2019-03-13T09:01:41.668Z,8.18
2019-03-13T09:02:41.644Z,8.26
2019-03-13T09:03:41.640Z,8.24
2019-03-13T09:04:42.215Z,8.11
2019-03-13T09:05:41.582Z,8.13
2019-03-13T09:06:41.602Z,8.13
2019-03-13T09:07:41.528Z,8.20
2019-03-13T09:08:41.517Z,8.09
2019-03-13T09:09:41.485Z,8.11
2019-03-13T09:10:41.458Z,8.26
2019-03-13T09:11:41.434Z,8.18
2019-03-13T09:12:41.409Z,8.23
2019-03-13T09:13:41.385Z,8.23
2019-03-13T09:14:41.364Z,8.31
2019-03-13T09:15:41.340Z,8.20
2019-03-13T09:16:41.314Z,8.31
2019-03-13T09:17:41.294Z,8.21
2019-03-13T09:18:41.269Z,8.21
2019-03-13T09:19:41.246Z,8.24
2019-03-13T09:20:41.221Z,8.17
2019-03-13T09:21:41.199Z,8.20
2019-03-13T09:22:41.174Z,8.14
2019-03-13T09:23:41.166Z,8.21
2019-03-13T09:24:41.132Z,8.06
2019-03-13T09:25:41.106Z,8.23
2019-03-13T09:26:41.085Z,8.23
2019-03-13T09:27:41.060Z,8.35
2019-03-13T09:28:41.034Z,8.42
2019-03-13T09:29:41.018Z,8.44
2019-03-13T09:30:40.996Z,8.39
2019-03-13T09:31:40.965Z,8.45
2019-03-13T09:32:40.942Z,8.50
2019-03-13T09:33:40.919Z,8.49
2019-03-13T09:34:40.894Z,8.46
2019-03-13T09:35:40.881Z,8.49
2019-03-13T09:36:40.857Z,8.44
2019-03-13T09:37:40.827Z,8.54
2019-03-13T09:38:40.819Z,8.46
2019-03-13T09:39:40.782Z,8.64
2019-03-13T09:40:40.756Z,8.59
2019-03-13T09:41:40.735Z,8.64
2019-03-13T09:42:40.718Z,8.68
2019-03-13T09:43:40.690Z,8.68
2019-03-13T09:44:40.679Z,8.59
2019-03-13T09:45:40.647Z,8.60
2019-03-13T09:46:40.635Z,8.45
2019-03-13T09:47:40.598Z,8.57
2019-03-13T09:48:40.583Z,8.59
2019-03-13T09:49:40.550Z,8.71
2019-03-13T09:50:40.527Z,8.69
2019-03-13T09:51:40.505Z,8.60
2019-03-13T09:52:40.482Z,8.68
2019-03-13T09:53:40.462Z,8.68
2019-03-13T09:54:40.436Z,8.64
2019-03-13T09:55:40.415Z,8.46
2019-03-13T09:56:40.422Z,8.49
2019-03-13T09:57:40.370Z,8.44
2019-03-13T09:58:40.364Z,8.38
2019-03-13T09:59:43.531Z,8.44
2019-03-13T10:00:40.299Z,8.28
2019-03-13T10:01:40.296Z,8.28
2019-03-13T10:02:40.294Z,8.20
2019-03-13T10:03:40.233Z,8.16
2019-03-13T10:04:40.218Z,8.18
2019-03-13T10:05:40.185Z,8.21
2019-03-13T10:06:40.163Z,8.14
2019-03-13T10:07:40.140Z,8.16
2019-03-13T10:08:40.124Z,8.09
2019-03-13T10:09:40.098Z,8.11
2019-03-13T10:10:40.080Z,8.08
2019-03-13T10:11:40.048Z,7.98
2019-03-13T10:12:40.024Z,7.96
2019-03-13T10:13:40.008Z,8.05
2019-03-13T10:14:39.981Z,7.88
2019-03-13T10:15:40.017Z,7.91
2019-03-13T10:16:39.936Z,7.88
2019-03-13T10:17:40.023Z,7.78
2019-03-13T10:18:39.887Z,7.88
2019-03-13T10:19:43.056Z,7.81
2019-03-13T10:20:39.838Z,7.74
2019-03-13T10:21:39.815Z,7.85
2019-03-13T10:22:39.811Z,7.91
2019-03-13T10:23:39.769Z,7.91
2019-03-13T10:24:39.756Z,7.98
2019-03-13T10:25:39.721Z,7.91
2019-03-13T10:26:39.708Z,7.83
2019-03-13T10:27:39.677Z,7.95
2019-03-13T10:28:39.670Z,7.91
2019-03-13T10:29:39.647Z,7.93
2019-03-13T10:30:39.609Z,7.78
2019-03-13T10:31:39.584Z,7.93
2019-03-13T10:32:39.562Z,7.87
2019-03-13T10:33:39.543Z,7.98
2019-03-13T10:34:39.516Z,8.02
2019-03-13T10:35:39.492Z,7.99
2019-03-13T10:36:39.473Z,8.03
2019-03-13T10:37:39.448Z,8.08
2019-03-13T10:38:39.422Z,8.05
2019-03-13T10:39:39.398Z,8.06
2019-03-13T10:40:39.374Z,8.18
2019-03-13T10:41:39.354Z,8.14
2019-03-13T10:42:39.330Z,8.14
2019-03-13T10:43:39.313Z,7.85
2019-03-13T10:44:39.288Z,7.90
2019-03-13T10:45:39.257Z,7.90
2019-03-13T10:46:39.235Z,7.96
2019-03-13T10:47:39.218Z,7.91
2019-03-13T10:48:39.187Z,7.90
2019-03-13T10:49:39.165Z,7.93
2019-03-13T10:50:39.142Z,7.99
2019-03-13T10:51:39.119Z,8.06
2019-03-13T10:54:02.769Z,8.17
2019-03-13T10:55:02.745Z,8.11
2019-03-13T10:56:02.731Z,7.90
2019-03-13T10:57:02.699Z,8.03
2019-03-13T10:58:02.684Z,8.05
2019-03-13T10:59:02.658Z,8.03
2019-03-13T11:00:02.629Z,7.98
2019-03-13T11:01:02.605Z,8.01
2019-03-13T11:02:02.595Z,8.05
2019-03-13T11:03:02.564Z,8.20
2019-03-13T11:04:02.544Z,8.28
2019-03-13T11:05:02.513Z,8.31
2019-03-13T11:06:02.505Z,8.44
2019-03-13T11:07:02.466Z,8.36
2019-03-13T11:08:02.450Z,8.28
2019-03-13T11:09:02.425Z,8.50
2019-03-13T11:10:02.399Z,8.34
2019-03-13T11:11:02.468Z,8.17
2019-03-13T11:12:02.351Z,8.20
2019-03-13T11:13:02.329Z,8.17
2019-03-13T11:14:14.421Z,8.14
2019-03-13T11:15:02.286Z,8.24
2019-03-13T11:16:02.349Z,8.21
2019-03-13T11:17:02.241Z,8.31
2019-03-13T11:18:02.210Z,8.24
2019-03-13T11:19:02.187Z,8.18
2019-03-13T11:20:02.164Z,8.27
2019-03-13T11:21:02.147Z,8.18
2019-03-13T11:22:02.121Z,8.17
2019-03-13T11:23:02.104Z,8.26
2019-03-13T11:24:02.071Z,8.31
2019-03-13T11:25:02.057Z,8.35
2019-03-13T11:26:02.022Z,8.26
2019-03-13T11:27:02.009Z,8.24
2019-03-13T11:28:01.984Z,8.38
2019-03-13T11:29:01.961Z,8.41
2019-03-13T11:30:01.942Z,8.44
2019-03-13T11:31:01.918Z,8.45
2019-03-13T11:32:01.886Z,8.53
2019-03-13T11:33:01.869Z,8.42
2019-03-13T11:34:01.839Z,8.45
2019-03-13T11:35:01.817Z,8.42
2019-03-13T11:36:01.798Z,8.46
2019-03-13T11:37:01.774Z,8.39
2019-03-13T11:38:01.762Z,8.41
2019-03-13T11:39:01.724Z,8.46
2019-03-13T11:40:01.706Z,8.42
2019-03-13T11:41:01.689Z,8.59
2019-03-13T11:42:01.670Z,8.61
2019-03-13T11:43:01.634Z,8.72
2019-03-13T11:44:01.610Z,8.74
2019-03-13T11:45:01.602Z,8.60
2019-03-13T11:46:01.564Z,8.75
2019-03-13T11:47:01.547Z,8.71
2019-03-13T11:48:01.525Z,8.72
2019-03-13T11:49:01.511Z,8.69
2019-03-13T11:50:01.488Z,8.68
2019-03-13T11:51:01.449Z,8.63
2019-03-13T11:52:01.427Z,8.61
2019-03-13T11:53:01.403Z,8.71
2019-03-13T11:54:01.383Z,8.75
2019-03-13T11:55:01.358Z,8.78
2019-03-13T11:56:01.341Z,8.66
2019-03-13T11:57:01.312Z,8.68
2019-03-13T11:58:01.290Z,8.78
2019-03-13T11:59:01.267Z,8.86
2019-03-13T12:00:01.252Z,8.81
2019-03-13T12:01:01.219Z,8.75
2019-03-13T12:02:01.213Z,8.81
2019-03-13T12:03:01.180Z,8.79
2019-03-13T12:04:01.160Z,8.77
2019-03-13T12:05:01.130Z,8.74
2019-03-13T12:06:01.118Z,8.84
2019-03-13T12:07:01.084Z,8.81
2019-03-13T12:08:01.071Z,8.79
2019-03-13T12:09:01.039Z,8.79
2019-03-13T12:10:01.015Z,8.77
2019-03-13T12:11:00.998Z,8.61
2019-03-13T12:12:00.994Z,8.68
2019-03-13T12:13:00.947Z,8.60
2019-03-13T12:14:00.932Z,8.49
2019-03-13T12:15:00.905Z,8.57
2019-03-13T12:16:00.886Z,8.49
2019-03-13T12:17:00.869Z,8.46
2019-03-13T12:18:00.831Z,8.31
2019-03-13T12:19:00.815Z,8.45
2019-03-13T12:20:00.792Z,8.27
2019-03-13T12:21:00.764Z,8.21
2019-03-13T12:22:00.739Z,8.23
2019-03-13T12:23:00.719Z,8.18
2019-03-13T12:24:00.700Z,8.20
2019-03-13T12:25:00.671Z,8.20
2019-03-13T12:26:03.092Z,8.20
2019-03-13T12:27:00.625Z,8.16
2019-03-13T12:28:00.601Z,8.11
2019-03-13T12:29:00.588Z,8.09
2019-03-13T12:30:00.556Z,8.14
2019-03-13T12:31:00.530Z,8.14
2019-03-13T12:32:00.518Z,8.02
2019-03-13T12:33:00.483Z,7.98
2019-03-13T12:34:00.461Z,7.87
2019-03-13T12:35:00.448Z,7.87
2019-03-13T12:36:00.415Z,7.95
2019-03-13T12:37:00.391Z,7.93
2019-03-13T12:38:00.377Z,7.99
2019-03-13T12:39:00.345Z,7.91
2019-03-13T12:40:00.419Z,7.91
2019-03-13T12:41:00.298Z,7.91
2019-03-13T12:42:00.276Z,7.90
2019-03-13T12:43:00.252Z,7.91
2019-03-13T12:44:00.228Z,7.84
2019-03-13T12:45:00.448Z,7.75
2019-03-13T12:46:00.181Z,7.74
2019-03-13T12:47:00.157Z,7.74
2019-03-13T12:48:00.138Z,7.74
2019-03-13T12:49:00.109Z,7.75
2019-03-13T12:50:00.089Z,7.75
2019-03-13T12:51:00.070Z,7.75
2019-03-13T12:52:00.041Z,7.67
2019-03-13T12:53:00.015Z,7.77
2019-03-13T12:53:59.993Z,7.72
2019-03-13T12:55:02.342Z,7.70
2019-03-13T12:55:59.946Z,7.74
2019-03-13T12:56:59.920Z,7.70
2019-03-13T12:57:59.912Z,7.77
2019-03-13T12:58:59.889Z,7.77
2019-03-13T12:59:59.859Z,7.67
2019-03-13T13:00:59.836Z,7.75
2019-03-13T13:01:59.804Z,7.64
2019-03-13T13:02:59.782Z,7.67
2019-03-13T13:03:59.766Z,7.64
2019-03-13T13:04:59.743Z,7.66
2019-03-13T13:05:59.709Z,7.62
2019-03-13T13:06:59.691Z,7.55
2019-03-13T13:07:59.687Z,7.47
2019-03-13T13:08:59.640Z,7.51
2019-03-13T13:09:59.627Z,7.48
2019-03-13T13:10:59.591Z,7.44
2019-03-13T13:11:59.568Z,7.50
2019-03-13T13:12:59.550Z,7.44
2019-03-13T13:13:59.528Z,7.44
2019-03-13T13:14:59.500Z,7.53
2019-03-13T13:15:59.475Z,7.48
2019-03-13T13:16:59.448Z,7.43
2019-03-13T13:17:59.424Z,7.36
2019-03-13T13:18:59.399Z,7.31
2019-03-13T13:19:59.376Z,7.40